UAL819 KIAH-SAEZ
Flight info
| Callsign | UAL819 |
|---|---|
| Flight time | N/A |
| Altitude | 35000 |
| Route | FLYZA5 ANKRR L208 DUTNA DCT OMVOM/N0481F370 UM209 ANIKO DCT TEKUG UM205 SPP UN420 NIRBU/N0475F390 UN420 RCO UL417 ASETO/N0478F410 UL417 TOPOG UL404 ISOPO UT672 MULTA UW24 SNT SNT7V |
| Aircraft | B772/H-SDE2E3FGHIJ5LORVWXY/LB1D1 |
Departure
| Time | 2025-09-08 09:05 |
|---|---|
| Airport | George Bush Intercontinental Airport (KIAH) |
Arrival
| Time | N/A |
|---|---|
| Airport | Ezeiza International Airport - Ministro Pistarini (SAEZ) |
| Time | Latitude | Longitude | Altitude | Speed | Heading |
|---|---|---|---|---|---|
| 2025-09-08 08:26 | 29.98380 | -95.33466 | 111 ft | 0 kts | 325° |
| 2025-09-08 08:50 | 29.98366 | -95.33454 | 108 ft | 3 kts | 321° |
| 2025-09-08 08:51 | 29.98325 | -95.33404 | 108 ft | 3 kts | 303° |
| 2025-09-08 08:52 | 29.98306 | -95.33364 | 108 ft | 3 kts | 287° |
| 2025-09-08 08:52 | 29.98300 | -95.33327 | 109 ft | 0 kts | 270° |
| 2025-09-08 08:55 | 29.98301 | -95.33416 | 109 ft | 4 kts | 270° |
| 2025-09-08 08:56 | 29.98304 | -95.33555 | 111 ft | 6 kts | 274° |
| 2025-09-08 08:57 | 29.98313 | -95.33690 | 110 ft | 12 kts | 274° |
| 2025-09-08 08:57 | 29.98317 | -95.33894 | 110 ft | 13 kts | 269° |
| 2025-09-08 08:58 | 29.98367 | -95.34086 | 108 ft | 13 kts | 292° |
| 2025-09-08 08:58 | 29.98376 | -95.34290 | 111 ft | 13 kts | 269° |
| 2025-09-08 08:58 | 29.98377 | -95.34392 | 110 ft | 13 kts | 271° |
| 2025-09-08 08:59 | 29.98378 | -95.34702 | 111 ft | 13 kts | 270° |
| 2025-09-08 09:00 | 29.98380 | -95.35011 | 111 ft | 13 kts | 271° |
| 2025-09-08 09:00 | 29.98403 | -95.35209 | 108 ft | 13 kts | 319° |
| 2025-09-08 09:01 | 29.98480 | -95.35262 | 109 ft | 13 kts | 331° |
| 2025-09-08 09:01 | 29.98638 | -95.35360 | 111 ft | 13 kts | 334° |
| 2025-09-08 09:02 | 29.98795 | -95.35456 | 108 ft | 13 kts | 331° |
| 2025-09-08 09:02 | 29.98820 | -95.35590 | 109 ft | 9 kts | 307° |
| 2025-09-08 09:03 | 29.98808 | -95.35717 | 111 ft | 9 kts | 240° |
| 2025-09-08 09:03 | 29.98714 | -95.35738 | 111 ft | 19 kts | 152° |
| 2025-09-08 09:04 | 29.97719 | -95.35130 | 111 ft | 142 kts | 152° |
| 2025-09-08 09:04 | 29.96724 | -95.34531 | 179 ft | 185 kts | 152° |
| 2025-09-08 09:05 | 29.94442 | -95.33114 | 1410 ft | 190 kts | 135° |
| 2025-09-08 09:05 | 29.92996 | -95.30299 | 1998 ft | 219 kts | 120° |
| 2025-09-08 09:06 | 29.91088 | -95.27262 | 2613 ft | 250 kts | 124° |
| 2025-09-08 09:06 | 29.88906 | -95.23985 | 3642 ft | 265 kts | 126° |
| 2025-09-08 09:07 | 29.86721 | -95.20499 | 4785 ft | 273 kts | 123° |
| 2025-09-08 09:07 | 29.83365 | -95.15091 | 4993 ft | 277 kts | 124° |
| 2025-09-08 09:08 | 29.80762 | -95.11907 | 5277 ft | 280 kts | 142° |
| 2025-09-08 09:08 | 29.79180 | -95.10587 | 5907 ft | 282 kts | 143° |
| 2025-09-08 09:09 | 29.75992 | -95.07864 | 7044 ft | 288 kts | 142° |
| 2025-09-08 09:09 | 29.72409 | -95.05778 | 8084 ft | 292 kts | 161° |
| 2025-09-08 09:10 | 29.68541 | -95.04274 | 9208 ft | 299 kts | 162° |
| 2025-09-08 09:10 | 29.64594 | -95.02652 | 10301 ft | 307 kts | 161° |
| 2025-09-08 09:11 | 29.60332 | -95.00854 | 10604 ft | 346 kts | 161° |
| 2025-09-08 09:11 | 29.53195 | -94.97839 | 11990 ft | 375 kts | 161° |
| 2025-09-08 09:12 | 29.48266 | -94.95756 | 13427 ft | 382 kts | 161° |
| 2025-09-08 09:12 | 29.45748 | -94.94694 | 14062 ft | 389 kts | 161° |
| 2025-09-08 09:13 | 29.40592 | -94.92521 | 15232 ft | 399 kts | 161° |
| 2025-09-08 09:13 | 29.35299 | -94.90292 | 16359 ft | 410 kts | 161° |
| 2025-09-08 09:14 | 29.29925 | -94.88032 | 17553 ft | 418 kts | 161° |
| 2025-09-08 09:14 | 29.24826 | -94.84838 | 18458 ft | 425 kts | 137° |
| 2025-09-08 09:15 | 29.18848 | -94.78225 | 19740 ft | 436 kts | 137° |
| 2025-09-08 09:15 | 29.16642 | -94.75807 | 20126 ft | 442 kts | 137° |
| 2025-09-08 09:16 | 29.12167 | -94.70967 | 21096 ft | 448 kts | 137° |
| 2025-09-08 09:16 | 29.07570 | -94.66044 | 21945 ft | 457 kts | 137° |
| 2025-09-08 09:17 | 29.02894 | -94.61058 | 22908 ft | 463 kts | 137° |
| 2025-09-08 09:17 | 28.98147 | -94.56001 | 23747 ft | 471 kts | 138° |
| 2025-09-08 09:18 | 28.93353 | -94.50900 | 24480 ft | 477 kts | 138° |
| 2025-09-08 09:19 | 28.81008 | -94.37792 | 26274 ft | 493 kts | 139° |
| 2025-09-08 09:21 | 28.63085 | -94.18839 | 28347 ft | 513 kts | 139° |
| 2025-09-08 09:23 | 28.39082 | -93.93601 | 30491 ft | 532 kts | 139° |
| 2025-09-08 09:25 | 28.19931 | -93.73580 | 31728 ft | 538 kts | 139° |
| 2025-09-08 09:27 | 27.95243 | -93.47922 | 33506 ft | 535 kts | 139° |
| 2025-09-08 09:29 | 27.76104 | -93.28143 | 34726 ft | 533 kts | 139° |
| 2025-09-08 09:30 | 27.54580 | -93.14436 | 35665 ft | 522 kts | 163° |
| 2025-09-08 09:33 | 27.24380 | -93.02143 | 37028 ft | 519 kts | 163° |
| 2025-09-08 09:34 | 27.00709 | -92.92576 | 37900 ft | 516 kts | 162° |
| 2025-09-08 09:37 | 26.71264 | -92.78398 | 38944 ft | 514 kts | 150° |
| 2025-09-08 09:38 | 26.49838 | -92.63985 | 39317 ft | 515 kts | 150° |
| 2025-09-08 09:41 | 26.22127 | -92.45587 | 39681 ft | 516 kts | 150° |
| 2025-09-08 09:42 | 26.00557 | -92.31334 | 39891 ft | 516 kts | 150° |
| 2025-09-08 09:45 | 25.72825 | -92.13098 | 40085 ft | 515 kts | 149° |
| 2025-09-08 09:46 | 25.51265 | -91.98990 | 40029 ft | 517 kts | 149° |
| 2025-09-08 09:49 | 25.24018 | -91.81245 | 39002 ft | 501 kts | 149° |